createdAt,value
2018-12-09T00:01:25.143Z,4.27
2018-12-09T00:05:28.831Z,5.65
2018-12-09T00:09:32.510Z,5.12
2018-12-09T00:13:36.276Z,4.03
2018-12-09T00:17:40.410Z,3.10
2018-12-09T00:21:44.015Z,4.67
2018-12-09T00:25:47.731Z,3.10
2018-12-09T00:29:51.386Z,2.55
2018-12-09T00:33:55.087Z,2.60
2018-12-09T00:37:58.770Z,2.75
2018-12-09T00:42:02.381Z,3.10
2018-12-09T00:46:06.114Z,3.98
2018-12-09T00:50:09.885Z,3.85
2018-12-09T00:54:13.521Z,5.70
2018-12-09T00:58:17.166Z,3.62
2018-12-09T01:02:20.814Z,4.33
2018-12-09T01:06:24.454Z,3.52
2018-12-09T01:10:28.106Z,4.10
2018-12-09T01:14:31.786Z,4.90
2018-12-09T01:18:35.461Z,5.78
2018-12-09T01:22:39.158Z,5.33
2018-12-09T01:26:42.942Z,7.70
2018-12-09T01:30:46.593Z,8.15
2018-12-09T01:34:50.250Z,7.42
2018-12-09T01:38:53.962Z,8.13
2018-12-09T01:42:57.602Z,10.45
2018-12-09T01:47:01.527Z,9.35
2018-12-09T01:51:05.266Z,7.93
2018-12-09T01:55:09.028Z,9.53
2018-12-09T01:59:13.245Z,9.28
2018-12-09T02:03:16.876Z,10.23
2018-12-09T02:07:20.626Z,9.13
2018-12-09T02:11:24.352Z,11.03
2018-12-09T02:15:28.177Z,8.28
2018-12-09T02:19:31.961Z,2.50
2018-12-09T02:23:35.720Z,8.10
2018-12-09T02:27:39.429Z,5.92
2018-12-09T02:31:43.235Z,3.35
2018-12-09T02:35:47.402Z,4.55
2018-12-09T02:39:51.055Z,6.40
2018-12-09T02:43:54.794Z,5.43
2018-12-09T02:47:58.536Z,4.50
2018-12-09T02:52:02.349Z,7.15
2018-12-09T02:56:06.062Z,4.17
2018-12-09T03:00:10.231Z,3.60
2018-12-09T03:04:13.909Z,4.67
2018-12-09T03:08:17.586Z,6.78
2018-12-09T03:12:21.267Z,4.45
2018-12-09T03:16:25.055Z,8.65
2018-12-09T03:20:29.218Z,6.15
2018-12-09T03:24:32.975Z,7.07
2018-12-09T03:28:36.758Z,8.53
2018-12-09T03:32:40.451Z,9.55
2018-12-09T03:36:44.232Z,7.80
2018-12-09T03:40:48.050Z,7.35
2018-12-09T03:44:51.839Z,8.27
2018-12-09T03:48:55.616Z,7.70
2018-12-09T03:52:59.334Z,7.40
2018-12-09T03:57:03.034Z,7.83
2018-12-09T04:01:06.702Z,8.48
2018-12-09T04:05:10.809Z,11.07
2018-12-09T04:09:14.507Z,9.58
2018-12-09T04:13:18.221Z,11.20
2018-12-09T04:17:21.985Z,14.97
2018-12-09T04:21:25.671Z,13.32
2018-12-09T04:25:29.347Z,16.48
2018-12-09T04:29:33.063Z,12.00
2018-12-09T04:33:36.672Z,14.58
2018-12-09T04:37:40.744Z,12.47
2018-12-09T04:41:44.400Z,15.28
2018-12-09T04:45:48.068Z,16.60
2018-12-09T04:49:51.711Z,15.48
2018-12-09T04:53:55.405Z,19.62
2018-12-09T04:57:59.140Z,12.60
2018-12-09T05:02:02.782Z,15.83
2018-12-09T05:06:06.541Z,15.60
2018-12-09T05:10:10.205Z,13.17
2018-12-09T05:14:13.866Z,14.15
2018-12-09T05:18:17.513Z,14.38
2018-12-09T05:22:21.661Z,15.68
2018-12-09T05:26:25.308Z,8.57
2018-12-09T05:30:28.973Z,8.58
2018-12-09T05:34:32.621Z,9.93
2018-12-09T05:38:36.259Z,7.40
2018-12-09T05:42:40.002Z,5.17
2018-12-09T05:46:43.667Z,5.97
2018-12-09T05:50:47.351Z,2.80
2018-12-09T05:54:51.410Z,4.87
2018-12-09T05:58:55.227Z,2.90
2018-12-09T06:02:59.113Z,1.85
2018-12-09T06:07:02.933Z,3.47
2018-12-09T06:11:06.785Z,3.08
2018-12-09T06:15:10.591Z,1.10
2018-12-09T06:19:14.373Z,1.67
2018-12-09T06:23:18.186Z,2.20
2018-12-09T06:27:22.554Z,1.23
2018-12-09T06:31:26.325Z,1.15
2018-12-09T06:35:30.127Z,1.00
2018-12-09T06:39:33.859Z,1.50
2018-12-09T06:43:37.571Z,0.70
2018-12-09T06:47:41.266Z,1.10
2018-12-09T06:51:44.889Z,0.85
2018-12-09T06:55:48.539Z,1.70
2018-12-09T06:59:52.253Z,1.17
2018-12-09T07:03:55.959Z,0.78
2018-12-09T07:07:59.855Z,1.30
2018-12-09T07:12:03.601Z,2.33
2018-12-09T07:16:07.338Z,2.10
2018-12-09T07:20:12.387Z,1.17
2018-12-09T07:24:16.066Z,2.05
2018-12-09T07:28:19.746Z,0.95
2018-12-09T07:32:23.438Z,1.30
2018-12-09T07:36:27.067Z,0.70
2018-12-09T07:40:30.770Z,0.90
2018-12-09T07:44:34.454Z,1.10
2018-12-09T07:48:38.150Z,1.30
2018-12-09T07:52:41.826Z,1.67
2018-12-09T07:56:45.468Z,1.17
2018-12-09T08:00:49.114Z,1.70
2018-12-09T08:04:52.783Z,1.05
2018-12-09T08:08:56.998Z,1.50
2018-12-09T08:13:00.886Z,1.00
2018-12-09T08:17:04.542Z,0.80
2018-12-09T08:21:09.102Z,1.60
2018-12-09T08:25:13.073Z,0.90
2018-12-09T08:29:17.340Z,0.40
2018-12-09T08:33:21.124Z,3.20
2018-12-09T08:37:24.787Z,0.77
2018-12-09T08:41:28.461Z,0.80
2018-12-09T08:45:32.130Z,0.62
2018-12-09T08:49:35.779Z,0.70
2018-12-09T08:53:39.421Z,1.60
2018-12-09T08:57:43.182Z,0.80
2018-12-09T09:01:47.006Z,1.25
2018-12-09T09:05:50.626Z,1.90
2018-12-09T09:09:54.319Z,1.82
2018-12-09T09:13:58.527Z,1.20
2018-12-09T09:18:02.172Z,0.90
2018-12-09T09:22:05.975Z,1.30
2018-12-09T09:26:09.664Z,1.00
2018-12-09T09:30:13.317Z,0.60
2018-12-09T09:34:16.999Z,0.98
2018-12-09T09:38:20.659Z,1.15
2018-12-09T09:42:24.298Z,1.40
2018-12-09T09:46:27.954Z,1.75
2018-12-09T09:50:31.554Z,1.30
2018-12-09T09:54:35.366Z,1.13
2018-12-09T09:58:39.038Z,2.50
2018-12-09T10:02:42.820Z,2.35
2018-12-09T10:06:46.490Z,3.00
2018-12-09T10:10:50.361Z,4.60
2018-12-09T10:14:54.064Z,3.90
2018-12-09T10:18:58.079Z,6.42
2018-12-09T10:23:01.776Z,4.60
2018-12-09T10:27:05.447Z,4.37
2018-12-09T10:31:09.076Z,5.80
2018-12-09T10:35:12.774Z,6.42
2018-12-09T10:39:16.437Z,6.08
2018-12-09T10:43:20.097Z,7.63
2018-12-09T10:47:23.742Z,6.70
2018-12-09T10:51:27.376Z,8.10
2018-12-09T10:55:31.043Z,5.97
2018-12-09T10:59:34.727Z,4.80
2018-12-09T11:03:38.618Z,8.43
2018-12-09T11:07:42.317Z,8.55
2018-12-09T11:11:46.024Z,11.43
2018-12-09T11:15:49.718Z,8.58
2018-12-09T11:19:53.409Z,9.50
2018-12-09T11:23:57.092Z,6.53
2018-12-09T11:28:00.770Z,10.70
2018-12-09T11:32:04.458Z,9.08
2018-12-09T11:36:08.115Z,7.53
2018-12-09T11:40:11.766Z,7.35
2018-12-09T11:44:15.420Z,7.07
2018-12-09T11:48:19.107Z,6.60
2018-12-09T11:52:23.575Z,10.78
2018-12-09T11:56:27.343Z,7.85
2018-12-09T12:00:31.026Z,7.12
2018-12-09T12:04:34.694Z,9.47
2018-12-09T12:08:38.379Z,9.65
2018-12-09T12:12:42.046Z,8.70
2018-12-09T12:16:45.754Z,8.00
2018-12-09T12:20:49.441Z,9.30
2018-12-09T12:24:53.114Z,5.97
2018-12-09T12:28:57.069Z,7.67
2018-12-09T12:33:00.887Z,10.08
2018-12-09T12:37:06.988Z,8.78
2018-12-09T12:41:10.862Z,10.48
2018-12-09T12:45:14.699Z,8.03
2018-12-09T12:49:18.446Z,8.38
2018-12-09T12:53:22.402Z,6.50
2018-12-09T12:57:26.127Z,7.15
2018-12-09T13:01:30.113Z,5.00
2018-12-09T13:05:33.963Z,8.60
2018-12-09T13:09:38.050Z,9.58
2018-12-09T13:13:42.340Z,5.22
2018-12-09T13:17:46.931Z,8.50
2018-12-09T13:21:50.625Z,9.30
2018-12-09T13:25:54.450Z,7.00
2018-12-09T13:29:58.899Z,8.03
2018-12-09T13:34:02.563Z,8.93
2018-12-09T13:38:06.466Z,8.30
2018-12-09T13:42:10.160Z,9.05
2018-12-09T13:46:13.950Z,8.30
2018-12-09T13:50:17.767Z,6.53
2018-12-09T13:54:21.438Z,6.77
2018-12-09T13:58:26.232Z,4.45
2018-12-09T14:02:29.930Z,5.03
2018-12-09T14:06:33.614Z,4.58
2018-12-09T14:10:37.286Z,4.62
2018-12-09T14:14:40.971Z,4.70
2018-12-09T14:18:44.791Z,5.70
2018-12-09T14:22:48.454Z,5.67
2018-12-09T14:26:52.120Z,5.15
2018-12-09T14:30:55.824Z,4.28
2018-12-09T14:34:59.490Z,3.05
2018-12-09T14:39:04.982Z,3.67
2018-12-09T14:43:08.659Z,3.37
2018-12-09T14:47:12.456Z,4.50
2018-12-09T14:51:16.129Z,3.95
2018-12-09T14:55:19.847Z,4.40
2018-12-09T14:59:23.583Z,2.85
2018-12-09T15:03:27.244Z,5.42
2018-12-09T15:07:30.943Z,4.33
2018-12-09T15:11:34.667Z,4.47
2018-12-09T15:15:38.343Z,2.92
2018-12-09T15:19:42.015Z,5.87
2018-12-09T15:23:45.706Z,6.42
2018-12-09T15:27:49.681Z,7.75
2018-12-09T15:31:53.431Z,5.75
2018-12-09T15:35:57.186Z,6.70
2018-12-09T15:40:00.935Z,10.03
2018-12-09T15:44:04.681Z,6.72
2018-12-09T15:48:08.391Z,5.78
2018-12-09T15:52:12.141Z,5.95
2018-12-09T15:56:15.922Z,6.47
2018-12-09T16:00:19.711Z,9.20
2018-12-09T16:04:23.355Z,8.60
2018-12-09T16:08:27.062Z,7.90
2018-12-09T16:12:30.789Z,10.77
2018-12-09T16:16:34.746Z,6.97
2018-12-09T16:20:38.434Z,11.03
2018-12-09T16:24:42.042Z,8.15
2018-12-09T16:28:45.685Z,9.50
2018-12-09T16:32:49.422Z,8.48
2018-12-09T16:36:53.078Z,11.55
2018-12-09T16:40:56.706Z,9.77
2018-12-09T16:45:00.401Z,10.82
2018-12-09T16:49:04.119Z,14.15
2018-12-09T16:53:07.934Z,11.75
2018-12-09T16:57:11.623Z,12.37
2018-12-09T17:01:15.238Z,12.28
2018-12-09T17:05:18.885Z,10.10
2018-12-09T17:09:22.533Z,13.77
2018-12-09T17:13:26.191Z,10.70
2018-12-09T17:17:30.021Z,10.60
2018-12-09T17:21:33.769Z,17.12
2018-12-09T17:25:37.681Z,11.30
2018-12-09T17:30:12.827Z,13.13
2018-12-09T17:34:16.490Z,15.15
2018-12-09T17:38:20.102Z,14.83
2018-12-09T17:42:23.747Z,11.30
2018-12-09T17:46:27.395Z,16.10
2018-12-09T17:50:31.032Z,16.67
2018-12-09T17:54:34.647Z,11.50
2018-12-09T17:58:38.300Z,8.95
2018-12-09T18:02:41.938Z,10.78
2018-12-09T18:06:45.589Z,8.68
2018-12-09T18:10:49.238Z,10.43
2018-12-09T18:14:52.890Z,9.23
2018-12-09T18:18:56.538Z,10.03
2018-12-09T18:23:00.183Z,15.98
2018-12-09T18:27:03.856Z,14.10
2018-12-09T18:31:07.513Z,14.95
2018-12-09T18:35:11.697Z,13.90
2018-12-09T18:39:15.377Z,11.83
2018-12-09T18:43:19.138Z,16.52
2018-12-09T18:47:22.817Z,13.77
2018-12-09T18:51:26.445Z,12.18
2018-12-09T18:55:30.110Z,17.00
2018-12-09T18:59:35.006Z,17.37
2018-12-09T19:03:38.858Z,16.40
2018-12-09T19:07:42.815Z,19.83
2018-12-09T19:11:46.647Z,11.70
2018-12-09T19:15:56.755Z,14.30
2018-12-09T19:20:01.401Z,15.00
2018-12-09T19:24:05.805Z,13.80
2018-12-09T19:28:10.966Z,11.00
2018-12-09T19:32:14.995Z,12.73
2018-12-09T19:36:20.760Z,10.65
2018-12-09T19:40:24.969Z,11.93
2018-12-09T19:44:29.684Z,8.75
2018-12-09T19:48:33.334Z,8.48
2018-12-09T19:52:37.503Z,12.63
2018-12-09T19:56:42.808Z,10.82
2018-12-09T20:00:46.935Z,13.88
2018-12-09T20:04:50.839Z,12.37
2018-12-09T20:08:56.224Z,14.25
2018-12-09T20:13:01.501Z,14.45
2018-12-09T20:17:05.589Z,11.38
2018-12-09T20:21:09.542Z,16.45
2018-12-09T20:25:13.782Z,17.45
2018-12-09T20:29:19.120Z,11.63
2018-12-09T20:33:26.000Z,10.60
2018-12-09T20:37:32.052Z,11.00
2018-12-09T20:41:36.337Z,8.90
2018-12-09T20:45:40.356Z,8.90
2018-12-09T20:49:44.272Z,12.82
2018-12-09T20:53:48.255Z,9.00
2018-12-09T20:57:52.287Z,11.60
2018-12-09T21:02:01.241Z,11.45
2018-12-09T21:06:05.896Z,11.00
2018-12-09T21:10:12.078Z,14.65
2018-12-09T21:14:19.325Z,10.13
2018-12-09T21:18:23.671Z,10.90
2018-12-09T21:22:38.600Z,10.28
2018-12-09T21:26:45.194Z,9.73
2018-12-09T21:30:49.219Z,9.37
2018-12-09T21:34:53.154Z,7.97
2018-12-09T21:38:57.040Z,10.40
2018-12-09T21:43:01.186Z,10.27
2018-12-09T21:47:05.238Z,11.80
2018-12-09T21:51:09.253Z,9.28
2018-12-09T21:55:13.075Z,12.50
2018-12-09T21:59:17.842Z,10.40
2018-12-09T22:03:25.204Z,11.57
2018-12-09T22:07:32.691Z,11.03
2018-12-09T22:11:40.773Z,12.70
2018-12-09T22:15:48.811Z,12.80
2018-12-09T22:19:53.065Z,13.88
2018-12-09T22:23:56.746Z,16.23
2018-12-09T22:28:00.433Z,11.08
2018-12-09T22:32:04.202Z,12.10
2018-12-09T22:36:10.743Z,16.53
2018-12-09T22:40:14.833Z,15.05
2018-12-09T22:44:19.743Z,13.30
2018-12-09T22:48:23.453Z,8.58
2018-12-09T22:52:27.094Z,17.37
2018-12-09T22:56:30.754Z,13.18
2018-12-09T23:00:35.035Z,14.97
2018-12-09T23:04:38.661Z,13.18
2018-12-09T23:08:42.424Z,11.65
2018-12-09T23:12:46.342Z,13.77
2018-12-09T23:16:50.157Z,14.00
2018-12-09T23:20:53.903Z,13.90
2018-12-09T23:24:57.674Z,10.25
2018-12-09T23:29:01.404Z,11.30
2018-12-09T23:33:05.147Z,13.93
2018-12-09T23:37:08.859Z,11.93
2018-12-09T23:41:12.510Z,14.40
2018-12-09T23:45:16.166Z,10.80
2018-12-09T23:49:19.819Z,11.57
2018-12-09T23:53:23.433Z,11.97
2018-12-09T23:57:27.060Z,7.10
